sensor_id;sensor_type;location;lat;lon;timestamp;P1;durP1;ratioP1;P2;durP2;ratioP2
75506;SDS011;64086;43.220;27.878;2023-02-28T00:00:42;4.85;;;3.50;;
75506;SDS011;64086;43.220;27.878;2023-02-28T00:03:08;5.10;;;3.80;;
75506;SDS011;64086;43.220;27.878;2023-02-28T00:05:34;4.35;;;3.53;;
75506;SDS011;64086;43.220;27.878;2023-02-28T00:07:59;4.72;;;3.83;;
75506;SDS011;64086;43.220;27.878;2023-02-28T00:10:26;4.55;;;3.70;;
75506;SDS011;64086;43.220;27.878;2023-02-28T00:12:54;4.03;;;3.40;;
75506;SDS011;64086;43.220;27.878;2023-02-28T00:15:22;4.72;;;3.35;;
75506;SDS011;64086;43.220;27.878;2023-02-28T00:17:48;4.82;;;3.58;;
75506;SDS011;64086;43.220;27.878;2023-02-28T00:20:14;4.82;;;3.90;;
75506;SDS011;64086;43.220;27.878;2023-02-28T00:22:41;4.80;;;3.35;;
75506;SDS011;64086;43.220;27.878;2023-02-28T00:25:09;4.80;;;3.90;;
75506;SDS011;64086;43.220;27.878;2023-02-28T00:27:36;4.50;;;3.38;;
75506;SDS011;64086;43.220;27.878;2023-02-28T00:30:03;4.65;;;3.72;;
75506;SDS011;64086;43.220;27.878;2023-02-28T00:32:29;5.35;;;3.90;;
75506;SDS011;64086;43.220;27.878;2023-02-28T00:34:55;5.10;;;4.03;;
75506;SDS011;64086;43.220;27.878;2023-02-28T00:37:20;5.03;;;3.90;;
75506;SDS011;64086;43.220;27.878;2023-02-28T00:39:46;4.82;;;3.95;;
75506;SDS011;64086;43.220;27.878;2023-02-28T00:42:11;4.38;;;3.75;;
75506;SDS011;64086;43.220;27.878;2023-02-28T00:44:37;4.80;;;4.03;;
75506;SDS011;64086;43.220;27.878;2023-02-28T00:47:02;5.28;;;4.00;;
75506;SDS011;64086;43.220;27.878;2023-02-28T00:49:28;5.53;;;4.28;;
75506;SDS011;64086;43.220;27.878;2023-02-28T00:51:55;5.18;;;4.25;;
75506;SDS011;64086;43.220;27.878;2023-02-28T00:54:21;5.22;;;4.18;;
75506;SDS011;64086;43.220;27.878;2023-02-28T00:56:47;5.25;;;4.00;;
75506;SDS011;64086;43.220;27.878;2023-02-28T00:59:13;5.15;;;4.15;;
75506;SDS011;64086;43.220;27.878;2023-02-28T01:01:40;4.78;;;3.90;;
75506;SDS011;64086;43.220;27.878;2023-02-28T01:04:06;5.32;;;4.43;;
75506;SDS011;64086;43.220;27.878;2023-02-28T01:06:32;4.72;;;4.15;;
75506;SDS011;64086;43.220;27.878;2023-02-28T01:08:58;5.90;;;5.00;;
75506;SDS011;64086;43.220;27.878;2023-02-28T01:11:24;6.00;;;4.88;;
75506;SDS011;64086;43.220;27.878;2023-02-28T01:13:49;5.55;;;4.43;;
75506;SDS011;64086;43.220;27.878;2023-02-28T01:16:15;5.05;;;4.55;;
75506;SDS011;64086;43.220;27.878;2023-02-28T01:18:40;5.13;;;4.35;;
75506;SDS011;64086;43.220;27.878;2023-02-28T01:21:07;5.72;;;4.95;;
75506;SDS011;64086;43.220;27.878;2023-02-28T01:23:33;6.25;;;5.43;;
75506;SDS011;64086;43.220;27.878;2023-02-28T01:28:35;6.05;;;5.40;;
75506;SDS011;64086;43.220;27.878;2023-02-28T01:31:01;6.32;;;5.47;;
75506;SDS011;64086;43.220;27.878;2023-02-28T01:33:26;6.57;;;5.80;;
75506;SDS011;64086;43.220;27.878;2023-02-28T01:35:58;6.70;;;5.45;;
75506;SDS011;64086;43.220;27.878;2023-02-28T01:38:25;6.30;;;5.70;;
75506;SDS011;64086;43.220;27.878;2023-02-28T01:40:50;6.78;;;5.78;;
75506;SDS011;64086;43.220;27.878;2023-02-28T01:43:22;6.20;;;5.38;;
75506;SDS011;64086;43.220;27.878;2023-02-28T01:45:53;7.07;;;5.97;;
75506;SDS011;64086;43.220;27.878;2023-02-28T01:48:21;6.50;;;5.43;;
75506;SDS011;64086;43.220;27.878;2023-02-28T01:50:52;6.47;;;5.40;;
75506;SDS011;64086;43.220;27.878;2023-02-28T01:53:20;6.03;;;5.35;;
75506;SDS011;64086;43.220;27.878;2023-02-28T01:55:48;6.20;;;5.05;;
75506;SDS011;64086;43.220;27.878;2023-02-28T01:58:15;5.90;;;5.20;;
75506;SDS011;64086;43.220;27.878;2023-02-28T02:00:41;6.45;;;5.40;;
75506;SDS011;64086;43.220;27.878;2023-02-28T02:03:12;6.50;;;5.80;;
75506;SDS011;64086;43.220;27.878;2023-02-28T02:05:39;5.47;;;4.70;;
75506;SDS011;64086;43.220;27.878;2023-02-28T02:08:06;5.60;;;4.75;;
75506;SDS011;64086;43.220;27.878;2023-02-28T02:10:35;6.18;;;4.78;;
75506;SDS011;64086;43.220;27.878;2023-02-28T02:32:16;5.88;;;4.45;;
75506;SDS011;64086;43.220;27.878;2023-02-28T02:37:40;5.55;;;4.63;;
75506;SDS011;64086;43.220;27.878;2023-02-28T02:40:20;5.38;;;4.50;;
75506;SDS011;64086;43.220;27.878;2023-02-28T02:48:21;5.82;;;4.53;;
75506;SDS011;64086;43.220;27.878;2023-02-28T02:50:53;5.07;;;4.32;;
75506;SDS011;64086;43.220;27.878;2023-02-28T02:53:23;5.75;;;4.53;;
75506;SDS011;64086;43.220;27.878;2023-02-28T02:55:53;5.18;;;4.22;;
75506;SDS011;64086;43.220;27.878;2023-02-28T02:58:20;5.35;;;4.45;;
75506;SDS011;64086;43.220;27.878;2023-02-28T03:00:50;5.45;;;4.47;;
75506;SDS011;64086;43.220;27.878;2023-02-28T03:03:18;5.25;;;3.90;;
75506;SDS011;64086;43.220;27.878;2023-02-28T03:05:49;4.82;;;3.90;;
75506;SDS011;64086;43.220;27.878;2023-02-28T03:08:15;5.78;;;3.80;;
75506;SDS011;64086;43.220;27.878;2023-02-28T03:10:45;4.40;;;3.83;;
75506;SDS011;64086;43.220;27.878;2023-02-28T03:18:15;5.15;;;4.13;;
75506;SDS011;64086;43.220;27.878;2023-02-28T03:23:34;4.38;;;3.40;;
75506;SDS011;64086;43.220;27.878;2023-02-28T03:26:04;4.70;;;3.90;;
75506;SDS011;64086;43.220;27.878;2023-02-28T03:31:21;4.60;;;3.78;;
75506;SDS011;64086;43.220;27.878;2023-02-28T03:33:54;5.45;;;4.18;;
75506;SDS011;64086;43.220;27.878;2023-02-28T03:36:28;4.38;;;3.45;;
75506;SDS011;64086;43.220;27.878;2023-02-28T03:38:57;4.97;;;4.20;;
75506;SDS011;64086;43.220;27.878;2023-02-28T03:41:47;5.28;;;4.18;;
75506;SDS011;64086;43.220;27.878;2023-02-28T03:44:24;5.00;;;3.97;;
75506;SDS011;64086;43.220;27.878;2023-02-28T03:47:03;5.80;;;4.55;;
75506;SDS011;64086;43.220;27.878;2023-02-28T03:49:35;5.53;;;4.70;;
75506;SDS011;64086;43.220;27.878;2023-02-28T03:52:04;4.95;;;3.90;;
75506;SDS011;64086;43.220;27.878;2023-02-28T03:54:32;6.40;;;5.07;;
75506;SDS011;64086;43.220;27.878;2023-02-28T03:57:03;5.03;;;4.43;;
75506;SDS011;64086;43.220;27.878;2023-02-28T03:59:43;6.45;;;5.57;;
75506;SDS011;64086;43.220;27.878;2023-02-28T04:02:12;6.13;;;4.80;;
75506;SDS011;64086;43.220;27.878;2023-02-28T04:04:38;6.25;;;5.10;;
75506;SDS011;64086;43.220;27.878;2023-02-28T04:07:05;5.95;;;4.90;;
75506;SDS011;64086;43.220;27.878;2023-02-28T04:09:32;6.38;;;4.60;;
75506;SDS011;64086;43.220;27.878;2023-02-28T04:11:58;6.00;;;5.05;;
75506;SDS011;64086;43.220;27.878;2023-02-28T04:14:24;6.00;;;5.05;;
75506;SDS011;64086;43.220;27.878;2023-02-28T04:16:49;5.82;;;5.03;;
75506;SDS011;64086;43.220;27.878;2023-02-28T04:19:16;6.97;;;5.50;;
75506;SDS011;64086;43.220;27.878;2023-02-28T04:21:43;6.20;;;4.95;;
75506;SDS011;64086;43.220;27.878;2023-02-28T04:24:11;6.97;;;4.90;;
75506;SDS011;64086;43.220;27.878;2023-02-28T04:26:39;8.30;;;5.95;;
75506;SDS011;64086;43.220;27.878;2023-02-28T04:31:38;7.00;;;5.28;;
75506;SDS011;64086;43.220;27.878;2023-02-28T04:34:04;7.55;;;5.38;;
75506;SDS011;64086;43.220;27.878;2023-02-28T04:36:30;6.50;;;5.35;;
75506;SDS011;64086;43.220;27.878;2023-02-28T04:38:55;7.10;;;5.53;;
75506;SDS011;64086;43.220;27.878;2023-02-28T04:41:21;7.30;;;5.50;;
75506;SDS011;64086;43.220;27.878;2023-02-28T04:43:47;7.57;;;5.80;;
75506;SDS011;64086;43.220;27.878;2023-02-28T04:46:13;7.78;;;5.72;;
75506;SDS011;64086;43.220;27.878;2023-02-28T04:48:39;7.53;;;5.88;;
75506;SDS011;64086;43.220;27.878;2023-02-28T04:51:09;7.47;;;5.43;;
75506;SDS011;64086;43.220;27.878;2023-02-28T04:53:38;9.05;;;6.18;;
75506;SDS011;64086;43.220;27.878;2023-02-28T04:56:05;7.70;;;5.60;;
75506;SDS011;64086;43.220;27.878;2023-02-28T04:58:31;8.57;;;6.63;;
75506;SDS011;64086;43.220;27.878;2023-02-28T05:01:04;9.27;;;6.82;;
75506;SDS011;64086;43.220;27.878;2023-02-28T05:03:38;8.68;;;6.45;;
75506;SDS011;64086;43.220;27.878;2023-02-28T05:06:06;9.18;;;6.80;;
75506;SDS011;64086;43.220;27.878;2023-02-28T05:08:32;9.57;;;6.65;;
75506;SDS011;64086;43.220;27.878;2023-02-28T05:10:58;9.52;;;6.68;;
75506;SDS011;64086;43.220;27.878;2023-02-28T05:13:25;8.98;;;6.90;;
75506;SDS011;64086;43.220;27.878;2023-02-28T05:15:51;11.43;;;7.53;;
75506;SDS011;64086;43.220;27.878;2023-02-28T05:18:16;11.43;;;7.72;;
75506;SDS011;64086;43.220;27.878;2023-02-28T05:20:42;12.75;;;7.93;;
75506;SDS011;64086;43.220;27.878;2023-02-28T05:23:07;11.55;;;8.02;;
75506;SDS011;64086;43.220;27.878;2023-02-28T05:25:33;12.68;;;8.90;;
75506;SDS011;64086;43.220;27.878;2023-02-28T05:27:59;10.85;;;8.10;;
75506;SDS011;64086;43.220;27.878;2023-02-28T05:30:24;12.35;;;8.77;;
75506;SDS011;64086;43.220;27.878;2023-02-28T05:32:50;13.95;;;8.73;;
75506;SDS011;64086;43.220;27.878;2023-02-28T05:35:16;10.88;;;8.10;;
75506;SDS011;64086;43.220;27.878;2023-02-28T05:37:42;11.63;;;8.32;;
75506;SDS011;64086;43.220;27.878;2023-02-28T05:40:07;11.65;;;8.27;;
75506;SDS011;64086;43.220;27.878;2023-02-28T05:42:36;11.75;;;8.20;;
75506;SDS011;64086;43.220;27.878;2023-02-28T05:45:02;13.55;;;8.88;;
75506;SDS011;64086;43.220;27.878;2023-02-28T05:47:28;12.43;;;8.98;;
75506;SDS011;64086;43.220;27.878;2023-02-28T05:49:54;12.30;;;9.25;;
75506;SDS011;64086;43.220;27.878;2023-02-28T05:52:19;13.13;;;8.63;;
75506;SDS011;64086;43.220;27.878;2023-02-28T05:54:46;12.43;;;9.02;;
75506;SDS011;64086;43.220;27.878;2023-02-28T05:57:11;13.48;;;9.38;;
75506;SDS011;64086;43.220;27.878;2023-02-28T05:59:37;12.90;;;9.38;;
75506;SDS011;64086;43.220;27.878;2023-02-28T06:02:05;14.95;;;9.48;;
75506;SDS011;64086;43.220;27.878;2023-02-28T06:04:31;14.35;;;9.93;;
75506;SDS011;64086;43.220;27.878;2023-02-28T06:06:57;15.07;;;10.63;;
75506;SDS011;64086;43.220;27.878;2023-02-28T06:09:22;16.65;;;11.23;;
75506;SDS011;64086;43.220;27.878;2023-02-28T06:11:48;16.95;;;10.98;;
75506;SDS011;64086;43.220;27.878;2023-02-28T06:14:14;17.30;;;11.68;;
75506;SDS011;64086;43.220;27.878;2023-02-28T06:16:41;16.85;;;11.27;;
75506;SDS011;64086;43.220;27.878;2023-02-28T06:19:08;16.33;;;10.90;;
75506;SDS011;64086;43.220;27.878;2023-02-28T06:21:34;15.77;;;10.32;;
75506;SDS011;64086;43.220;27.878;2023-02-28T06:24:00;16.00;;;10.30;;
75506;SDS011;64086;43.220;27.878;2023-02-28T06:26:25;18.00;;;11.27;;
75506;SDS011;64086;43.220;27.878;2023-02-28T06:28:51;17.00;;;11.10;;
75506;SDS011;64086;43.220;27.878;2023-02-28T06:31:17;17.48;;;10.23;;
75506;SDS011;64086;43.220;27.878;2023-02-28T06:33:43;16.05;;;11.40;;
75506;SDS011;64086;43.220;27.878;2023-02-28T06:36:09;17.00;;;11.38;;
75506;SDS011;64086;43.220;27.878;2023-02-28T06:38:35;16.90;;;9.98;;
75506;SDS011;64086;43.220;27.878;2023-02-28T06:41:02;15.77;;;10.65;;
75506;SDS011;64086;43.220;27.878;2023-02-28T06:43:29;17.50;;;11.05;;
75506;SDS011;64086;43.220;27.878;2023-02-28T06:45:59;16.00;;;10.85;;
75506;SDS011;64086;43.220;27.878;2023-02-28T06:48:28;15.95;;;10.77;;
75506;SDS011;64086;43.220;27.878;2023-02-28T06:53:39;17.67;;;10.05;;
75506;SDS011;64086;43.220;27.878;2023-02-28T06:56:09;16.80;;;10.57;;
75506;SDS011;64086;43.220;27.878;2023-02-28T06:58:36;15.10;;;10.55;;
75506;SDS011;64086;43.220;27.878;2023-02-28T07:01:02;14.65;;;9.30;;
75506;SDS011;64086;43.220;27.878;2023-02-28T07:03:28;13.32;;;8.43;;
75506;SDS011;64086;43.220;27.878;2023-02-28T07:05:54;14.48;;;9.55;;
75506;SDS011;64086;43.220;27.878;2023-02-28T07:08:21;13.85;;;9.18;;
75506;SDS011;64086;43.220;27.878;2023-02-28T07:10:53;13.32;;;8.55;;
75506;SDS011;64086;43.220;27.878;2023-02-28T07:13:20;13.95;;;9.10;;
75506;SDS011;64086;43.220;27.878;2023-02-28T07:18:41;11.38;;;7.40;;
75506;SDS011;64086;43.220;27.878;2023-02-28T07:21:07;11.68;;;8.15;;
75506;SDS011;64086;43.220;27.878;2023-02-28T07:23:34;10.15;;;7.63;;
75506;SDS011;64086;43.220;27.878;2023-02-28T07:26:00;11.35;;;8.40;;
75506;SDS011;64086;43.220;27.878;2023-02-28T07:28:26;12.50;;;9.18;;
75506;SDS011;64086;43.220;27.878;2023-02-28T07:30:51;10.02;;;7.65;;
75506;SDS011;64086;43.220;27.878;2023-02-28T07:33:17;8.40;;;6.15;;
75506;SDS011;64086;43.220;27.878;2023-02-28T07:35:43;9.82;;;7.03;;
75506;SDS011;64086;43.220;27.878;2023-02-28T07:38:09;10.88;;;7.53;;
75506;SDS011;64086;43.220;27.878;2023-02-28T07:40:34;12.07;;;7.95;;
75506;SDS011;64086;43.220;27.878;2023-02-28T07:43:00;8.82;;;6.70;;
75506;SDS011;64086;43.220;27.878;2023-02-28T07:45:27;9.55;;;6.65;;
75506;SDS011;64086;43.220;27.878;2023-02-28T07:47:53;11.30;;;7.45;;
75506;SDS011;64086;43.220;27.878;2023-02-28T07:50:19;10.50;;;7.68;;
75506;SDS011;64086;43.220;27.878;2023-02-28T07:52:45;9.13;;;7.00;;
75506;SDS011;64086;43.220;27.878;2023-02-28T07:55:10;11.32;;;8.45;;
75506;SDS011;64086;43.220;27.878;2023-02-28T07:57:36;10.18;;;6.93;;
75506;SDS011;64086;43.220;27.878;2023-02-28T08:00:05;9.88;;;6.25;;
75506;SDS011;64086;43.220;27.878;2023-02-28T08:02:32;9.18;;;7.07;;
75506;SDS011;64086;43.220;27.878;2023-02-28T08:04:57;10.93;;;7.50;;
75506;SDS011;64086;43.220;27.878;2023-02-28T08:07:23;20.77;;;11.80;;
75506;SDS011;64086;43.220;27.878;2023-02-28T08:09:48;15.50;;;8.52;;
75506;SDS011;64086;43.220;27.878;2023-02-28T08:12:13;10.77;;;6.88;;
75506;SDS011;64086;43.220;27.878;2023-02-28T08:14:39;9.48;;;6.68;;
75506;SDS011;64086;43.220;27.878;2023-02-28T08:17:05;9.98;;;6.63;;
75506;SDS011;64086;43.220;27.878;2023-02-28T08:19:31;21.20;;;9.75;;
75506;SDS011;64086;43.220;27.878;2023-02-28T08:21:56;11.50;;;8.05;;
75506;SDS011;64086;43.220;27.878;2023-02-28T08:24:22;8.82;;;6.55;;
75506;SDS011;64086;43.220;27.878;2023-02-28T08:26:48;9.98;;;7.05;;
75506;SDS011;64086;43.220;27.878;2023-02-28T08:29:13;10.50;;;7.15;;
75506;SDS011;64086;43.220;27.878;2023-02-28T08:31:39;9.88;;;7.68;;
75506;SDS011;64086;43.220;27.878;2023-02-28T08:34:05;10.18;;;7.10;;
75506;SDS011;64086;43.220;27.878;2023-02-28T08:36:34;9.75;;;7.63;;
75506;SDS011;64086;43.220;27.878;2023-02-28T08:38:59;9.25;;;7.63;;
75506;SDS011;64086;43.220;27.878;2023-02-28T08:41:25;10.73;;;7.60;;
75506;SDS011;64086;43.220;27.878;2023-02-28T08:43:51;10.82;;;7.95;;
75506;SDS011;64086;43.220;27.878;2023-02-28T08:46:17;9.57;;;7.68;;
75506;SDS011;64086;43.220;27.878;2023-02-28T08:48:43;9.13;;;6.65;;
75506;SDS011;64086;43.220;27.878;2023-02-28T08:51:10;10.93;;;7.60;;
75506;SDS011;64086;43.220;27.878;2023-02-28T08:53:38;8.85;;;6.93;;
75506;SDS011;64086;43.220;27.878;2023-02-28T08:56:06;9.82;;;8.27;;
75506;SDS011;64086;43.220;27.878;2023-02-28T08:58:33;11.27;;;7.93;;
75506;SDS011;64086;43.220;27.878;2023-02-28T09:00:59;9.38;;;7.88;;
75506;SDS011;64086;43.220;27.878;2023-02-28T09:03:25;9.30;;;6.82;;
75506;SDS011;64086;43.220;27.878;2023-02-28T09:06:00;8.30;;;6.57;;
75506;SDS011;64086;43.220;27.878;2023-02-28T09:08:27;10.68;;;7.50;;
75506;SDS011;64086;43.220;27.878;2023-02-28T09:10:54;9.45;;;7.75;;
75506;SDS011;64086;43.220;27.878;2023-02-28T09:13:22;9.40;;;7.03;;
75506;SDS011;64086;43.220;27.878;2023-02-28T09:15:47;9.70;;;7.20;;
75506;SDS011;64086;43.220;27.878;2023-02-28T09:18:13;10.10;;;7.65;;
75506;SDS011;64086;43.220;27.878;2023-02-28T09:20:40;11.93;;;7.75;;
75506;SDS011;64086;43.220;27.878;2023-02-28T09:23:06;10.88;;;8.68;;
75506;SDS011;64086;43.220;27.878;2023-02-28T09:25:32;9.93;;;7.82;;
75506;SDS011;64086;43.220;27.878;2023-02-28T09:27:58;9.95;;;7.07;;
75506;SDS011;64086;43.220;27.878;2023-02-28T09:30:23;10.02;;;6.72;;
75506;SDS011;64086;43.220;27.878;2023-02-28T09:32:49;9.02;;;6.60;;
75506;SDS011;64086;43.220;27.878;2023-02-28T09:35:26;8.15;;;6.50;;
75506;SDS011;64086;43.220;27.878;2023-02-28T09:37:51;10.30;;;7.60;;
75506;SDS011;64086;43.220;27.878;2023-02-28T09:40:18;9.75;;;6.90;;
75506;SDS011;64086;43.220;27.878;2023-02-28T09:42:47;8.60;;;6.20;;
75506;SDS011;64086;43.220;27.878;2023-02-28T09:45:28;8.27;;;6.60;;
75506;SDS011;64086;43.220;27.878;2023-02-28T09:47:59;8.07;;;6.00;;
75506;SDS011;64086;43.220;27.878;2023-02-28T09:50:36;10.13;;;7.45;;
75506;SDS011;64086;43.220;27.878;2023-02-28T09:53:13;7.70;;;6.13;;
75506;SDS011;64086;43.220;27.878;2023-02-28T09:55:51;8.25;;;6.97;;
75506;SDS011;64086;43.220;27.878;2023-02-28T09:58:54;9.50;;;7.00;;
75506;SDS011;64086;43.220;27.878;2023-02-28T10:06:54;10.55;;;7.18;;
75506;SDS011;64086;43.220;27.878;2023-02-28T10:09:21;9.27;;;6.78;;
75506;SDS011;64086;43.220;27.878;2023-02-28T10:11:53;9.35;;;6.80;;
75506;SDS011;64086;43.220;27.878;2023-02-28T10:14:20;8.73;;;6.60;;
75506;SDS011;64086;43.220;27.878;2023-02-28T10:16:48;8.25;;;6.50;;
75506;SDS011;64086;43.220;27.878;2023-02-28T10:19:30;11.55;;;7.00;;
75506;SDS011;64086;43.220;27.878;2023-02-28T10:22:01;9.30;;;6.85;;
75506;SDS011;64086;43.220;27.878;2023-02-28T10:24:32;8.60;;;6.78;;
75506;SDS011;64086;43.220;27.878;2023-02-28T10:27:06;9.18;;;7.20;;
75506;SDS011;64086;43.220;27.878;2023-02-28T10:29:39;8.82;;;6.60;;
75506;SDS011;64086;43.220;27.878;2023-02-28T10:32:05;9.52;;;6.68;;
75506;SDS011;64086;43.220;27.878;2023-02-28T10:34:31;9.88;;;7.25;;
75506;SDS011;64086;43.220;27.878;2023-02-28T10:36:56;13.82;;;9.07;;
75506;SDS011;64086;43.220;27.878;2023-02-28T10:42:02;9.55;;;6.43;;
75506;SDS011;64086;43.220;27.878;2023-02-28T10:44:28;9.45;;;6.18;;
75506;SDS011;64086;43.220;27.878;2023-02-28T10:46:53;8.70;;;7.10;;
75506;SDS011;64086;43.220;27.878;2023-02-28T10:51:58;7.82;;;6.03;;
75506;SDS011;64086;43.220;27.878;2023-02-28T10:59:40;8.93;;;5.45;;
75506;SDS011;64086;43.220;27.878;2023-02-28T11:04:58;8.27;;;5.97;;
75506;SDS011;64086;43.220;27.878;2023-02-28T11:07:23;9.23;;;6.22;;
75506;SDS011;64086;43.220;27.878;2023-02-28T11:09:51;9.32;;;6.65;;
75506;SDS011;64086;43.220;27.878;2023-02-28T11:12:39;9.48;;;6.85;;
75506;SDS011;64086;43.220;27.878;2023-02-28T11:15:05;10.57;;;8.80;;
75506;SDS011;64086;43.220;27.878;2023-02-28T11:17:43;9.75;;;7.32;;
75506;SDS011;64086;43.220;27.878;2023-02-28T11:20:10;9.52;;;6.90;;
75506;SDS011;64086;43.220;27.878;2023-02-28T11:22:48;9.93;;;7.05;;
75506;SDS011;64086;43.220;27.878;2023-02-28T11:25:49;9.93;;;8.27;;
75506;SDS011;64086;43.220;27.878;2023-02-28T11:28:24;10.40;;;7.50;;
75506;SDS011;64086;43.220;27.878;2023-02-28T11:33:48;9.20;;;6.35;;
75506;SDS011;64086;43.220;27.878;2023-02-28T11:36:22;9.90;;;6.80;;
75506;SDS011;64086;43.220;27.878;2023-02-28T11:38:49;8.93;;;7.35;;
75506;SDS011;64086;43.220;27.878;2023-02-28T11:41:25;8.63;;;6.50;;
75506;SDS011;64086;43.220;27.878;2023-02-28T11:46:47;11.57;;;7.47;;
75506;SDS011;64086;43.220;27.878;2023-02-28T11:52:19;9.25;;;6.85;;
75506;SDS011;64086;43.220;27.878;2023-02-28T11:54:55;9.02;;;7.40;;
75506;SDS011;64086;43.220;27.878;2023-02-28T12:05:45;9.52;;;6.97;;
75506;SDS011;64086;43.220;27.878;2023-02-28T12:08:19;8.90;;;6.78;;
75506;SDS011;64086;43.220;27.878;2023-02-28T12:16:48;9.67;;;6.80;;
75506;SDS011;64086;43.220;27.878;2023-02-28T12:19:18;10.13;;;6.68;;
75506;SDS011;64086;43.220;27.878;2023-02-28T12:27:13;8.73;;;6.20;;
75506;SDS011;64086;43.220;27.878;2023-02-28T12:34:53;9.68;;;7.45;;
75506;SDS011;64086;43.220;27.878;2023-02-28T12:37:40;10.45;;;7.40;;
75506;SDS011;64086;43.220;27.878;2023-02-28T12:40:12;12.70;;;8.55;;
75506;SDS011;64086;43.220;27.878;2023-02-28T12:42:41;11.00;;;7.95;;
75506;SDS011;64086;43.220;27.878;2023-02-28T12:45:10;9.63;;;7.50;;
75506;SDS011;64086;43.220;27.878;2023-02-28T12:47:40;10.07;;;8.05;;
75506;SDS011;64086;43.220;27.878;2023-02-28T12:50:09;9.10;;;6.70;;
75506;SDS011;64086;43.220;27.878;2023-02-28T12:52:52;9.10;;;7.05;;
75506;SDS011;64086;43.220;27.878;2023-02-28T12:55:23;10.10;;;7.10;;
75506;SDS011;64086;43.220;27.878;2023-02-28T13:09:09;11.13;;;7.72;;
75506;SDS011;64086;43.220;27.878;2023-02-28T13:11:41;11.07;;;7.07;;
75506;SDS011;64086;43.220;27.878;2023-02-28T13:16:59;12.00;;;8.48;;
75506;SDS011;64086;43.220;27.878;2023-02-28T13:19:28;11.30;;;8.13;;
75506;SDS011;64086;43.220;27.878;2023-02-28T13:21:56;12.63;;;8.38;;
75506;SDS011;64086;43.220;27.878;2023-02-28T13:24:45;10.77;;;7.68;;
75506;SDS011;64086;43.220;27.878;2023-02-28T13:33:21;13.38;;;8.45;;
75506;SDS011;64086;43.220;27.878;2023-02-28T13:38:44;14.23;;;9.15;;
75506;SDS011;64086;43.220;27.878;2023-02-28T13:44:08;12.38;;;8.63;;
75506;SDS011;64086;43.220;27.878;2023-02-28T14:05:04;15.50;;;9.77;;
75506;SDS011;64086;43.220;27.878;2023-02-28T14:07:32;17.33;;;10.90;;
75506;SDS011;64086;43.220;27.878;2023-02-28T14:10:15;13.63;;;10.00;;
75506;SDS011;64086;43.220;27.878;2023-02-28T14:12:52;16.55;;;10.48;;
75506;SDS011;64086;43.220;27.878;2023-02-28T14:18:03;14.50;;;9.50;;
75506;SDS011;64086;43.220;27.878;2023-02-28T14:20:36;15.32;;;9.93;;
75506;SDS011;64086;43.220;27.878;2023-02-28T14:26:02;14.23;;;9.73;;
75506;SDS011;64086;43.220;27.878;2023-02-28T14:32:21;15.20;;;9.75;;
75506;SDS011;64086;43.220;27.878;2023-02-28T14:37:15;15.40;;;9.93;;
75506;SDS011;64086;43.220;27.878;2023-02-28T14:39:44;16.70;;;10.75;;
75506;SDS011;64086;43.220;27.878;2023-02-28T14:42:29;14.18;;;9.50;;
75506;SDS011;64086;43.220;27.878;2023-02-28T14:44:55;15.85;;;10.07;;
75506;SDS011;64086;43.220;27.878;2023-02-28T14:47:21;15.00;;;10.13;;
75506;SDS011;64086;43.220;27.878;2023-02-28T14:49:49;17.08;;;10.18;;
75506;SDS011;64086;43.220;27.878;2023-02-28T14:52:16;17.38;;;9.85;;
75506;SDS011;64086;43.220;27.878;2023-02-28T14:54:44;17.75;;;9.88;;
75506;SDS011;64086;43.220;27.878;2023-02-28T14:57:23;14.30;;;9.82;;
75506;SDS011;64086;43.220;27.878;2023-02-28T15:02:36;18.15;;;11.10;;
75506;SDS011;64086;43.220;27.878;2023-02-28T15:07:34;16.40;;;10.63;;
75506;SDS011;64086;43.220;27.878;2023-02-28T15:12:36;13.90;;;9.70;;
75506;SDS011;64086;43.220;27.878;2023-02-28T15:15:03;16.88;;;10.82;;
75506;SDS011;64086;43.220;27.878;2023-02-28T15:17:28;18.55;;;11.10;;
75506;SDS011;64086;43.220;27.878;2023-02-28T15:19:54;18.85;;;10.90;;
75506;SDS011;64086;43.220;27.878;2023-02-28T15:22:38;14.13;;;10.52;;
75506;SDS011;64086;43.220;27.878;2023-02-28T15:25:04;16.63;;;10.77;;
75506;SDS011;64086;43.220;27.878;2023-02-28T15:27:31;17.88;;;11.30;;
75506;SDS011;64086;43.220;27.878;2023-02-28T15:29:59;17.13;;;11.18;;
75506;SDS011;64086;43.220;27.878;2023-02-28T15:32:30;16.90;;;10.30;;
75506;SDS011;64086;43.220;27.878;2023-02-28T15:34:58;15.27;;;10.38;;
75506;SDS011;64086;43.220;27.878;2023-02-28T15:40:10;15.13;;;10.18;;
75506;SDS011;64086;43.220;27.878;2023-02-28T15:42:35;14.32;;;10.00;;
75506;SDS011;64086;43.220;27.878;2023-02-28T15:45:01;16.38;;;10.40;;
75506;SDS011;64086;43.220;27.878;2023-02-28T15:47:27;17.08;;;10.93;;
75506;SDS011;64086;43.220;27.878;2023-02-28T15:52:22;18.65;;;10.60;;
75506;SDS011;64086;43.220;27.878;2023-02-28T15:54:53;15.10;;;8.97;;
75506;SDS011;64086;43.220;27.878;2023-02-28T15:57:25;12.88;;;8.85;;
75506;SDS011;64086;43.220;27.878;2023-02-28T15:59:59;11.85;;;8.40;;
75506;SDS011;64086;43.220;27.878;2023-02-28T16:05:00;15.20;;;9.65;;
75506;SDS011;64086;43.220;27.878;2023-02-28T16:07:38;16.25;;;9.05;;
75506;SDS011;64086;43.220;27.878;2023-02-28T16:10:05;14.63;;;9.35;;
75506;SDS011;64086;43.220;27.878;2023-02-28T16:12:33;14.13;;;9.55;;
75506;SDS011;64086;43.220;27.878;2023-02-28T16:15:02;17.08;;;10.55;;
75506;SDS011;64086;43.220;27.878;2023-02-28T16:17:42;14.55;;;8.90;;
75506;SDS011;64086;43.220;27.878;2023-02-28T16:20:15;15.65;;;9.88;;
75506;SDS011;64086;43.220;27.878;2023-02-28T16:22:43;13.80;;;8.73;;
75506;SDS011;64086;43.220;27.878;2023-02-28T16:25:12;15.52;;;10.07;;
75506;SDS011;64086;43.220;27.878;2023-02-28T16:27:38;13.93;;;9.73;;
75506;SDS011;64086;43.220;27.878;2023-02-28T16:30:04;13.35;;;9.18;;
75506;SDS011;64086;43.220;27.878;2023-02-28T16:32:32;15.90;;;9.90;;
75506;SDS011;64086;43.220;27.878;2023-02-28T16:35:00;17.25;;;11.60;;
75506;SDS011;64086;43.220;27.878;2023-02-28T16:37:26;14.82;;;9.32;;
75506;SDS011;64086;43.220;27.878;2023-02-28T16:39:52;15.13;;;9.73;;
75506;SDS011;64086;43.220;27.878;2023-02-28T16:42:22;16.15;;;10.23;;
75506;SDS011;64086;43.220;27.878;2023-02-28T16:44:50;14.23;;;9.88;;
75506;SDS011;64086;43.220;27.878;2023-02-28T16:47:17;14.38;;;8.48;;
75506;SDS011;64086;43.220;27.878;2023-02-28T16:49:42;13.18;;;8.63;;
75506;SDS011;64086;43.220;27.878;2023-02-28T16:52:08;14.85;;;8.93;;
75506;SDS011;64086;43.220;27.878;2023-02-28T16:54:34;12.95;;;9.18;;
75506;SDS011;64086;43.220;27.878;2023-02-28T16:57:00;14.65;;;9.35;;
75506;SDS011;64086;43.220;27.878;2023-02-28T16:59:26;12.35;;;7.50;;
75506;SDS011;64086;43.220;27.878;2023-02-28T17:01:53;12.30;;;8.32;;
75506;SDS011;64086;43.220;27.878;2023-02-28T17:04:19;13.48;;;8.95;;
75506;SDS011;64086;43.220;27.878;2023-02-28T17:06:45;15.15;;;9.25;;
75506;SDS011;64086;43.220;27.878;2023-02-28T17:09:15;13.48;;;8.77;;
75506;SDS011;64086;43.220;27.878;2023-02-28T17:11:42;14.93;;;9.63;;
75506;SDS011;64086;43.220;27.878;2023-02-28T17:14:08;15.60;;;10.27;;
75506;SDS011;64086;43.220;27.878;2023-02-28T17:16:34;14.55;;;10.13;;
75506;SDS011;64086;43.220;27.878;2023-02-28T17:19:02;17.00;;;10.95;;
75506;SDS011;64086;43.220;27.878;2023-02-28T17:21:29;14.45;;;9.90;;
75506;SDS011;64086;43.220;27.878;2023-02-28T17:23:55;13.32;;;8.55;;
75506;SDS011;64086;43.220;27.878;2023-02-28T17:26:21;15.73;;;9.65;;